Airfield :
LOGIN :

Register | Disclaimer

   EN    FR    IT 

 










Legend :    VFR   Marginal VFR   IFR   Intensive IFR   Very Intensive IFR
Visi :
Ceiling :
>= 8 km
>= 3000ft
5 to 8 km
1000 to 3000 ft
1500m to 5 km
500 to 1000 ft
800 to 1500m
200 to 500 ft
< 800m
< 200 ft
Symbols :   Thunderstorms  Fog  Heavy snow  Heavy precipitations  Wind > 20 kt
SIGMETs :     Misc.  Thunderstorms  Icing  Turbulence  Mountain Waves  Volcanic Ashes






- Airport Elevation : 505 ft
- IATA code : SXB


LFST - Strasbourg

CURRENT METAR :
  • 291200Z AUTO VRB02KT 9999 FEW007 10/04 Q1014 NOSIG

EXPIRED METARs :
  • 291130Z AUTO 36003KT 310V120 CAVOK 09/03 Q1014 NOSIG
  • 291100Z AUTO VRB02KT 9000 NSC 08/05 Q1015 NOSIG
  • 291030Z AUTO VRB03KT 6000 FEW002 07/04 Q1015 NOSIG
  • 291000Z AUTO VRB03KT 2900 BR VV/// 04/04 Q1016 BECMG 7000 NSW NSC
  • 290930Z AUTO VRB02KT 0300 0250 R23/0400N R05/0300N FG VV/// 03/02 Q1016 BECMG 7000 NSW NSC
  • 290900Z AUTO VRB02KT 0800 0350 R23/0900U R05/0900D FG VV/// 02/01 Q1017 TEMPO 4000 BR BKN003
  • 290830Z AUTO 05003KT 5000 0750 R23/1300D R05/P2000 BCFG VV/// 02/01 Q1017 TEMPO 0400 FZFG BKN003
  • 290800Z AUTO 03003KT 7000 NSC 02/00 Q1017 TEMPO 0400 FZFG VV///
  • 290730Z AUTO 03003KT 5000 BR FEW006 01/M00 Q1017 TEMPO 0400 FZFG VV///

TAF TAF LFST
Valid from the 29 at 12:00 until the 01 at 12:00 UTC


291100Z 2912/0112 VRB03KT CAVOK
BECMG 0104/0106 18010KT BKN040
PROB30
TEMPO 0105/0109 -RA



MET'MAP, your aeronautical weather chart ! - Copyright ORBIFLY December 2007 - Disclaimer

ORBIFLY MET'MAP TEAM :

Programming & Development : Alexandra Zaïnal
Original concept : Baudouin d'Aumeries
Technical & hardware support : Manuel Goepfert
Assistance : Marc-Olivier Méhu




SOURCES & CREDITS :

   NOAA